sensor_id;sensor_type;location;lat;lon;timestamp;P1;durP1;ratioP1;P2;durP2;ratioP2
54121;SDS011;40029;58.708;50.190;2024-03-23T00:54:13;17.38;;;6.43;;
54121;SDS011;40029;58.708;50.190;2024-03-23T00:56:44;10.38;;;3.90;;
54121;SDS011;40029;58.708;50.190;2024-03-23T00:59:33;6.03;;;2.60;;
54121;SDS011;40029;58.708;50.190;2024-03-23T01:02:05;11.43;;;2.80;;
54121;SDS011;40029;58.708;50.190;2024-03-23T01:04:36;8.85;;;3.15;;
54121;SDS011;40029;58.708;50.190;2024-03-23T01:07:07;9.95;;;3.92;;
54121;SDS011;40029;58.708;50.190;2024-03-23T01:09:38;13.93;;;6.00;;
54121;SDS011;40029;58.708;50.190;2024-03-23T01:12:09;10.52;;;5.30;;
54121;SDS011;40029;58.708;50.190;2024-03-23T01:14:40;10.75;;;5.32;;
54121;SDS011;40029;58.708;50.190;2024-03-23T01:17:12;15.90;;;6.90;;
54121;SDS011;40029;58.708;50.190;2024-03-23T01:19:43;13.23;;;6.25;;
54121;SDS011;40029;58.708;50.190;2024-03-23T01:22:14;8.77;;;4.18;;
54121;SDS011;40029;58.708;50.190;2024-03-23T01:24:45;10.30;;;4.28;;
54121;SDS011;40029;58.708;50.190;2024-03-23T01:27:17;11.80;;;5.90;;
54121;SDS011;40029;58.708;50.190;2024-03-23T01:29:48;28.40;;;9.32;;
54121;SDS011;40029;58.708;50.190;2024-03-23T01:32:20;27.40;;;10.88;;
54121;SDS011;40029;58.708;50.190;2024-03-23T01:34:51;27.80;;;11.50;;
54121;SDS011;40029;58.708;50.190;2024-03-23T01:37:22;24.38;;;11.02;;
54121;SDS011;40029;58.708;50.190;2024-03-23T01:39:53;18.67;;;9.00;;
54121;SDS011;40029;58.708;50.190;2024-03-23T01:42:25;14.23;;;7.93;;
54121;SDS011;40029;58.708;50.190;2024-03-23T01:44:56;9.18;;;5.00;;
54121;SDS011;40029;58.708;50.190;2024-03-23T01:47:27;9.25;;;3.78;;
54121;SDS011;40029;58.708;50.190;2024-03-23T01:49:58;9.13;;;2.92;;
54121;SDS011;40029;58.708;50.190;2024-03-23T01:52:29;8.18;;;2.63;;
54121;SDS011;40029;58.708;50.190;2024-03-23T01:55:01;11.38;;;3.42;;
54121;SDS011;40029;58.708;50.190;2024-03-23T01:57:33;13.60;;;3.97;;
54121;SDS011;40029;58.708;50.190;2024-03-23T02:00:05;15.93;;;5.07;;
54121;SDS011;40029;58.708;50.190;2024-03-23T02:05:33;17.70;;;5.43;;
54121;SDS011;40029;58.708;50.190;2024-03-23T02:08:04;20.98;;;6.15;;
54121;SDS011;40029;58.708;50.190;2024-03-23T02:10:54;19.42;;;5.80;;
54121;SDS011;40029;58.708;50.190;2024-03-23T02:13:44;19.65;;;6.93;;
54121;SDS011;40029;58.708;50.190;2024-03-23T02:16:33;29.35;;;6.93;;
54121;SDS011;40029;58.708;50.190;2024-03-23T02:19:23;20.55;;;7.18;;
54121;SDS011;40029;58.708;50.190;2024-03-23T02:21:54;33.05;;;7.70;;
54121;SDS011;40029;58.708;50.190;2024-03-23T02:24:26;20.83;;;6.82;;
54121;SDS011;40029;58.708;50.190;2024-03-23T02:26:57;24.60;;;6.43;;
54121;SDS011;40029;58.708;50.190;2024-03-23T02:29:28;27.67;;;6.30;;
54121;SDS011;40029;58.708;50.190;2024-03-23T02:31:59;26.05;;;5.53;;
54121;SDS011;40029;58.708;50.190;2024-03-23T02:34:32;14.30;;;4.60;;
54121;SDS011;40029;58.708;50.190;2024-03-23T02:37:21;16.80;;;4.70;;
54121;SDS011;40029;58.708;50.190;2024-03-23T02:39:52;21.38;;;4.57;;
54121;SDS011;40029;58.708;50.190;2024-03-23T02:42:24;12.85;;;4.38;;
54121;SDS011;40029;58.708;50.190;2024-03-23T02:44:55;8.93;;;4.07;;
54121;SDS011;40029;58.708;50.190;2024-03-23T02:47:26;8.13;;;3.38;;
54121;SDS011;40029;58.708;50.190;2024-03-23T02:49:57;14.70;;;4.35;;
54121;SDS011;40029;58.708;50.190;2024-03-23T02:52:29;11.18;;;3.47;;
54121;SDS011;40029;58.708;50.190;2024-03-23T02:55:02;7.35;;;3.08;;
54121;SDS011;40029;58.708;50.190;2024-03-23T02:57:34;5.18;;;2.67;;
54121;SDS011;40029;58.708;50.190;2024-03-23T03:00:06;9.90;;;3.40;;
54121;SDS011;40029;58.708;50.190;2024-03-23T03:02:38;9.60;;;2.75;;
54121;SDS011;40029;58.708;50.190;2024-03-23T03:05:09;8.20;;;2.85;;
54121;SDS011;40029;58.708;50.190;2024-03-23T03:07:41;12.40;;;4.03;;
54121;SDS011;40029;58.708;50.190;2024-03-23T03:10:12;9.45;;;3.10;;
54121;SDS011;40029;58.708;50.190;2024-03-23T03:12:44;8.80;;;3.28;;
54121;SDS011;40029;58.708;50.190;2024-03-23T03:15:15;13.75;;;3.45;;
54121;SDS011;40029;58.708;50.190;2024-03-23T03:17:46;8.15;;;3.60;;
54121;SDS011;40029;58.708;50.190;2024-03-23T03:20:39;8.93;;;3.78;;
54121;SDS011;40029;58.708;50.190;2024-03-23T03:26:00;10.80;;;4.25;;
54121;SDS011;40029;58.708;50.190;2024-03-23T03:28:31;11.23;;;4.22;;
54121;SDS011;40029;58.708;50.190;2024-03-23T03:31:05;10.48;;;3.95;;
54121;SDS011;40029;58.708;50.190;2024-03-23T03:33:36;14.32;;;3.65;;
54121;SDS011;40029;58.708;50.190;2024-03-23T03:36:07;13.20;;;3.95;;
54121;SDS011;40029;58.708;50.190;2024-03-23T03:38:38;17.42;;;5.22;;
54121;SDS011;40029;58.708;50.190;2024-03-23T03:41:28;14.30;;;4.00;;
54121;SDS011;40029;58.708;50.190;2024-03-23T03:43:59;11.82;;;3.60;;
54121;SDS011;40029;58.708;50.190;2024-03-23T03:46:33;17.83;;;4.35;;
54121;SDS011;40029;58.708;50.190;2024-03-23T03:49:22;12.82;;;3.83;;
54121;SDS011;40029;58.708;50.190;2024-03-23T03:51:53;10.27;;;3.78;;
54121;SDS011;40029;58.708;50.190;2024-03-23T03:54:25;10.57;;;3.35;;
54121;SDS011;40029;58.708;50.190;2024-03-23T03:56:56;10.80;;;3.55;;
54121;SDS011;40029;58.708;50.190;2024-03-23T03:59:46;23.83;;;4.40;;
54121;SDS011;40029;58.708;50.190;2024-03-23T04:02:17;15.93;;;4.30;;
54121;SDS011;40029;58.708;50.190;2024-03-23T04:04:48;13.77;;;3.95;;
54121;SDS011;40029;58.708;50.190;2024-03-23T04:07:19;14.57;;;3.90;;
54121;SDS011;40029;58.708;50.190;2024-03-23T04:09:53;16.10;;;3.67;;
54121;SDS011;40029;58.708;50.190;2024-03-23T04:12:24;17.23;;;4.38;;
54121;SDS011;40029;58.708;50.190;2024-03-23T04:14:55;16.88;;;3.90;;
54121;SDS011;40029;58.708;50.190;2024-03-23T04:17:27;13.27;;;5.00;;
54121;SDS011;40029;58.708;50.190;2024-03-23T04:20:02;15.93;;;4.88;;
54121;SDS011;40029;58.708;50.190;2024-03-23T04:22:40;14.52;;;4.20;;
54121;SDS011;40029;58.708;50.190;2024-03-23T04:25:11;9.93;;;3.92;;
54121;SDS011;40029;58.708;50.190;2024-03-23T04:27:42;13.20;;;4.78;;
54121;SDS011;40029;58.708;50.190;2024-03-23T04:30:15;16.02;;;4.18;;
54121;SDS011;40029;58.708;50.190;2024-03-23T04:32:47;11.98;;;4.63;;
54121;SDS011;40029;58.708;50.190;2024-03-23T04:35:18;13.20;;;4.97;;
54121;SDS011;40029;58.708;50.190;2024-03-23T04:37:52;23.38;;;4.38;;
54121;SDS011;40029;58.708;50.190;2024-03-23T04:40:24;14.65;;;4.40;;
54121;SDS011;40029;58.708;50.190;2024-03-23T04:42:56;21.05;;;5.57;;
54121;SDS011;40029;58.708;50.190;2024-03-23T04:45:27;14.70;;;4.93;;
54121;SDS011;40029;58.708;50.190;2024-03-23T04:47:59;18.95;;;5.85;;
54121;SDS011;40029;58.708;50.190;2024-03-23T04:50:48;23.17;;;5.60;;
54121;SDS011;40029;58.708;50.190;2024-03-23T04:53:39;24.08;;;5.80;;
54121;SDS011;40029;58.708;50.190;2024-03-23T04:56:11;13.68;;;4.60;;
54121;SDS011;40029;58.708;50.190;2024-03-23T04:58:42;16.80;;;5.05;;
54121;SDS011;40029;58.708;50.190;2024-03-23T05:01:14;16.58;;;5.18;;
54121;SDS011;40029;58.708;50.190;2024-03-23T05:03:45;12.15;;;4.05;;
54121;SDS011;40029;58.708;50.190;2024-03-23T05:06:17;14.95;;;5.13;;
54121;SDS011;40029;58.708;50.190;2024-03-23T05:08:48;8.23;;;3.65;;
54121;SDS011;40029;58.708;50.190;2024-03-23T05:11:20;11.18;;;3.42;;
54121;SDS011;40029;58.708;50.190;2024-03-23T05:13:51;11.20;;;3.65;;
54121;SDS011;40029;58.708;50.190;2024-03-23T05:16:22;13.25;;;4.13;;
54121;SDS011;40029;58.708;50.190;2024-03-23T05:18:53;10.13;;;3.83;;
54121;SDS011;40029;58.708;50.190;2024-03-23T05:21:25;8.68;;;3.95;;
54121;SDS011;40029;58.708;50.190;2024-03-23T05:23:56;7.20;;;3.63;;
54121;SDS011;40029;58.708;50.190;2024-03-23T05:26:27;7.50;;;3.13;;
54121;SDS011;40029;58.708;50.190;2024-03-23T05:28:58;7.55;;;3.17;;
54121;SDS011;40029;58.708;50.190;2024-03-23T05:31:30;8.23;;;2.55;;
54121;SDS011;40029;58.708;50.190;2024-03-23T05:34:20;12.70;;;2.67;;
54121;SDS011;40029;58.708;50.190;2024-03-23T05:36:51;8.25;;;2.63;;
54121;SDS011;40029;58.708;50.190;2024-03-23T05:39:22;10.02;;;2.85;;
54121;SDS011;40029;58.708;50.190;2024-03-23T05:41:54;7.20;;;2.58;;
54121;SDS011;40029;58.708;50.190;2024-03-23T05:44:25;6.85;;;2.53;;
54121;SDS011;40029;58.708;50.190;2024-03-23T05:46:57;5.63;;;2.30;;
54121;SDS011;40029;58.708;50.190;2024-03-23T05:49:28;10.02;;;2.08;;
54121;SDS011;40029;58.708;50.190;2024-03-23T05:51:59;5.88;;;2.70;;
54121;SDS011;40029;58.708;50.190;2024-03-23T05:54:32;6.60;;;3.33;;
54121;SDS011;40029;58.708;50.190;2024-03-23T05:57:22;10.73;;;2.72;;
54121;SDS011;40029;58.708;50.190;2024-03-23T05:59:54;10.68;;;2.42;;
54121;SDS011;40029;58.708;50.190;2024-03-23T06:02:25;8.18;;;2.88;;
54121;SDS011;40029;58.708;50.190;2024-03-23T06:04:56;9.93;;;3.00;;
54121;SDS011;40029;58.708;50.190;2024-03-23T06:07:27;12.98;;;2.80;;
54121;SDS011;40029;58.708;50.190;2024-03-23T06:09:59;10.63;;;3.08;;
54121;SDS011;40029;58.708;50.190;2024-03-23T06:12:30;8.95;;;3.28;;
54121;SDS011;40029;58.708;50.190;2024-03-23T06:15:01;9.98;;;2.63;;
54121;SDS011;40029;58.708;50.190;2024-03-23T06:17:35;4.00;;;2.50;;
54121;SDS011;40029;58.708;50.190;2024-03-23T06:20:07;6.07;;;2.45;;
54121;SDS011;40029;58.708;50.190;2024-03-23T06:22:39;14.65;;;2.60;;
54121;SDS011;40029;58.708;50.190;2024-03-23T06:25:29;9.00;;;3.45;;
54121;SDS011;40029;58.708;50.190;2024-03-23T06:28:00;7.50;;;2.88;;
54121;SDS011;40029;58.708;50.190;2024-03-23T06:30:34;8.80;;;3.15;;
54121;SDS011;40029;58.708;50.190;2024-03-23T06:33:05;10.90;;;2.60;;
54121;SDS011;40029;58.708;50.190;2024-03-23T06:35:36;11.20;;;2.65;;
54121;SDS011;40029;58.708;50.190;2024-03-23T06:38:07;8.80;;;3.38;;
54121;SDS011;40029;58.708;50.190;2024-03-23T06:40:38;10.88;;;3.38;;
54121;SDS011;40029;58.708;50.190;2024-03-23T06:43:09;9.32;;;2.70;;
54121;SDS011;40029;58.708;50.190;2024-03-23T06:45:40;7.72;;;3.17;;
54121;SDS011;40029;58.708;50.190;2024-03-23T06:48:11;12.45;;;3.40;;
54121;SDS011;40029;58.708;50.190;2024-03-23T06:50:43;9.88;;;3.45;;
54121;SDS011;40029;58.708;50.190;2024-03-23T06:53:14;7.05;;;3.17;;
54121;SDS011;40029;58.708;50.190;2024-03-23T06:55:49;10.85;;;3.53;;
54121;SDS011;40029;58.708;50.190;2024-03-23T06:58:23;9.43;;;3.35;;
54121;SDS011;40029;58.708;50.190;2024-03-23T07:00:55;14.52;;;3.67;;
54121;SDS011;40029;58.708;50.190;2024-03-23T07:03:26;13.93;;;3.45;;
54121;SDS011;40029;58.708;50.190;2024-03-23T07:05:58;11.32;;;4.43;;
54121;SDS011;40029;58.708;50.190;2024-03-23T07:08:30;10.15;;;3.28;;
54121;SDS011;40029;58.708;50.190;2024-03-23T07:11:21;7.18;;;2.80;;
54121;SDS011;40029;58.708;50.190;2024-03-23T07:13:52;8.38;;;2.50;;
54121;SDS011;40029;58.708;50.190;2024-03-23T07:18:58;6.60;;;2.95;;
54121;SDS011;40029;58.708;50.190;2024-03-23T07:21:29;7.78;;;3.60;;
54121;SDS011;40029;58.708;50.190;2024-03-23T07:24:00;6.95;;;2.90;;
54121;SDS011;40029;58.708;50.190;2024-03-23T07:26:31;8.43;;;3.58;;
54121;SDS011;40029;58.708;50.190;2024-03-23T07:29:21;14.35;;;4.57;;
54121;SDS011;40029;58.708;50.190;2024-03-23T07:31:53;12.00;;;2.95;;
54121;SDS011;40029;58.708;50.190;2024-03-23T07:34:24;7.43;;;1.92;;
54121;SDS011;40029;58.708;50.190;2024-03-23T07:37:14;9.05;;;3.03;;
54121;SDS011;40029;58.708;50.190;2024-03-23T07:40:04;4.65;;;2.38;;
54121;SDS011;40029;58.708;50.190;2024-03-23T07:42:37;7.32;;;1.90;;
54121;SDS011;40029;58.708;50.190;2024-03-23T07:45:26;8.70;;;2.55;;
54121;SDS011;40029;58.708;50.190;2024-03-23T07:48:15;8.30;;;2.25;;
54121;SDS011;40029;58.708;50.190;2024-03-23T07:50:47;6.43;;;2.63;;
54121;SDS011;40029;58.708;50.190;2024-03-23T07:53:26;9.48;;;2.30;;
54121;SDS011;40029;58.708;50.190;2024-03-23T07:56:00;9.60;;;2.20;;
54121;SDS011;40029;58.708;50.190;2024-03-23T07:58:36;6.53;;;2.33;;
54121;SDS011;40029;58.708;50.190;2024-03-23T08:01:08;6.80;;;2.13;;
54121;SDS011;40029;58.708;50.190;2024-03-23T08:03:42;7.00;;;2.60;;
54121;SDS011;40029;58.708;50.190;2024-03-23T08:06:17;7.15;;;2.30;;
54121;SDS011;40029;58.708;50.190;2024-03-23T08:08:55;5.95;;;1.67;;
54121;SDS011;40029;58.708;50.190;2024-03-23T08:11:31;9.43;;;2.58;;
54121;SDS011;40029;58.708;50.190;2024-03-23T08:14:23;8.15;;;2.05;;
54121;SDS011;40029;58.708;50.190;2024-03-23T08:16:54;5.80;;;1.75;;
54121;SDS011;40029;58.708;50.190;2024-03-23T08:19:26;3.45;;;1.67;;
54121;SDS011;40029;58.708;50.190;2024-03-23T08:21:57;7.43;;;1.98;;
54121;SDS011;40029;58.708;50.190;2024-03-23T08:24:28;3.08;;;1.80;;
54121;SDS011;40029;58.708;50.190;2024-03-23T08:27:19;5.30;;;1.90;;
54121;SDS011;40029;58.708;50.190;2024-03-23T08:29:50;4.50;;;1.83;;
54121;SDS011;40029;58.708;50.190;2024-03-23T08:32:21;4.28;;;1.95;;
54121;SDS011;40029;58.708;50.190;2024-03-23T08:34:52;12.50;;;2.00;;
54121;SDS011;40029;58.708;50.190;2024-03-23T08:37:23;15.40;;;2.15;;
54121;SDS011;40029;58.708;50.190;2024-03-23T08:39:56;6.25;;;1.85;;
54121;SDS011;40029;58.708;50.190;2024-03-23T08:42:27;9.75;;;2.38;;
54121;SDS011;40029;58.708;50.190;2024-03-23T08:44:58;4.15;;;1.85;;
54121;SDS011;40029;58.708;50.190;2024-03-23T08:47:29;3.65;;;1.95;;
54121;SDS011;40029;58.708;50.190;2024-03-23T08:50:00;6.18;;;2.38;;
54121;SDS011;40029;58.708;50.190;2024-03-23T08:52:50;5.57;;;2.08;;
54121;SDS011;40029;58.708;50.190;2024-03-23T08:55:22;2.70;;;1.63;;
54121;SDS011;40029;58.708;50.190;2024-03-23T08:57:53;5.63;;;2.30;;
54121;SDS011;40029;58.708;50.190;2024-03-23T09:00:24;5.07;;;2.38;;
54121;SDS011;40029;58.708;50.190;2024-03-23T09:02:55;7.32;;;2.25;;
54121;SDS011;40029;58.708;50.190;2024-03-23T09:05:27;4.30;;;2.00;;
54121;SDS011;40029;58.708;50.190;2024-03-23T09:07:59;4.55;;;1.85;;
54121;SDS011;40029;58.708;50.190;2024-03-23T09:10:30;7.72;;;2.22;;
54121;SDS011;40029;58.708;50.190;2024-03-23T09:13:02;8.18;;;2.53;;
54121;SDS011;40029;58.708;50.190;2024-03-23T09:15:37;7.32;;;2.50;;
54121;SDS011;40029;58.708;50.190;2024-03-23T09:18:16;10.52;;;2.95;;
54121;SDS011;40029;58.708;50.190;2024-03-23T09:20:48;10.70;;;3.83;;
54121;SDS011;40029;58.708;50.190;2024-03-23T09:23:22;17.20;;;4.90;;
54121;SDS011;40029;58.708;50.190;2024-03-23T09:25:53;13.57;;;4.88;;
54121;SDS011;40029;58.708;50.190;2024-03-23T09:28:24;10.93;;;4.65;;
54121;SDS011;40029;58.708;50.190;2024-03-23T09:31:01;13.30;;;5.07;;
54121;SDS011;40029;58.708;50.190;2024-03-23T09:33:36;16.17;;;4.47;;
54121;SDS011;40029;58.708;50.190;2024-03-23T09:36:07;10.93;;;4.40;;
54121;SDS011;40029;58.708;50.190;2024-03-23T09:38:41;10.02;;;3.88;;
54121;SDS011;40029;58.708;50.190;2024-03-23T09:41:12;11.95;;;4.47;;
54121;SDS011;40029;58.708;50.190;2024-03-23T09:44:04;37.35;;;9.80;;
54121;SDS011;40029;58.708;50.190;2024-03-23T09:46:35;23.52;;;8.98;;
54121;SDS011;40029;58.708;50.190;2024-03-23T09:49:09;15.20;;;6.68;;
54121;SDS011;40029;58.708;50.190;2024-03-23T09:51:40;27.35;;;9.90;;
54121;SDS011;40029;58.708;50.190;2024-03-23T09:54:12;13.82;;;4.43;;
54121;SDS011;40029;58.708;50.190;2024-03-23T09:56:43;22.67;;;8.80;;
54121;SDS011;40029;58.708;50.190;2024-03-23T09:59:14;25.40;;;8.98;;
54121;SDS011;40029;58.708;50.190;2024-03-23T10:01:45;21.35;;;9.80;;
54121;SDS011;40029;58.708;50.190;2024-03-23T10:04:36;20.60;;;8.32;;
54121;SDS011;40029;58.708;50.190;2024-03-23T10:07:20;24.50;;;9.60;;
54121;SDS011;40029;58.708;50.190;2024-03-23T10:09:55;17.42;;;5.80;;
54121;SDS011;40029;58.708;50.190;2024-03-23T10:12:27;10.88;;;4.60;;
54121;SDS011;40029;58.708;50.190;2024-03-23T10:14:58;14.45;;;5.35;;
54121;SDS011;40029;58.708;50.190;2024-03-23T10:17:29;20.63;;;5.30;;
54121;SDS011;40029;58.708;50.190;2024-03-23T10:20:00;15.10;;;5.60;;
54121;SDS011;40029;58.708;50.190;2024-03-23T10:22:50;11.88;;;5.22;;
54121;SDS011;40029;58.708;50.190;2024-03-23T10:25:22;11.18;;;4.40;;
54121;SDS011;40029;58.708;50.190;2024-03-23T10:28:00;14.68;;;3.97;;
54121;SDS011;40029;58.708;50.190;2024-03-23T10:30:32;10.63;;;4.28;;
54121;SDS011;40029;58.708;50.190;2024-03-23T10:33:12;16.75;;;6.32;;
54121;SDS011;40029;58.708;50.190;2024-03-23T10:35:45;16.98;;;6.40;;
54121;SDS011;40029;58.708;50.190;2024-03-23T10:38:17;11.65;;;4.70;;
54121;SDS011;40029;58.708;50.190;2024-03-23T10:40:49;12.35;;;4.72;;
54121;SDS011;40029;58.708;50.190;2024-03-23T10:43:20;8.85;;;3.70;;
54121;SDS011;40029;58.708;50.190;2024-03-23T10:45:52;10.48;;;3.97;;
54121;SDS011;40029;58.708;50.190;2024-03-23T10:48:41;35.75;;;12.70;;
54121;SDS011;40029;58.708;50.190;2024-03-23T10:51:14;33.10;;;10.30;;
54121;SDS011;40029;58.708;50.190;2024-03-23T10:54:04;20.73;;;8.48;;
54121;SDS011;40029;58.708;50.190;2024-03-23T10:56:37;15.90;;;6.60;;
54121;SDS011;40029;58.708;50.190;2024-03-23T10:59:10;21.02;;;7.85;;
54121;SDS011;40029;58.708;50.190;2024-03-23T11:01:58;22.02;;;7.35;;
54121;SDS011;40029;58.708;50.190;2024-03-23T11:04:31;15.55;;;4.88;;
54121;SDS011;40029;58.708;50.190;2024-03-23T11:09:55;14.07;;;4.95;;
54121;SDS011;40029;58.708;50.190;2024-03-23T11:12:28;9.85;;;3.85;;
54121;SDS011;40029;58.708;50.190;2024-03-23T11:15:21;11.10;;;4.50;;
54121;SDS011;40029;58.708;50.190;2024-03-23T11:18:06;10.32;;;3.78;;
54121;SDS011;40029;58.708;50.190;2024-03-23T11:20:42;10.40;;;4.53;;
54121;SDS011;40029;58.708;50.190;2024-03-23T11:23:29;11.40;;;4.55;;
54121;SDS011;40029;58.708;50.190;2024-03-23T11:26:18;14.82;;;5.05;;
54121;SDS011;40029;58.708;50.190;2024-03-23T11:28:49;22.00;;;7.28;;
54121;SDS011;40029;58.708;50.190;2024-03-23T11:31:20;12.55;;;5.13;;
54121;SDS011;40029;58.708;50.190;2024-03-23T11:34:02;12.70;;;4.65;;
54121;SDS011;40029;58.708;50.190;2024-03-23T11:36:35;10.70;;;4.28;;
54121;SDS011;40029;58.708;50.190;2024-03-23T11:39:15;13.60;;;6.97;;
54121;SDS011;40029;58.708;50.190;2024-03-23T11:41:55;7.07;;;3.45;;
54121;SDS011;40029;58.708;50.190;2024-03-23T11:44:27;6.65;;;2.92;;
54121;SDS011;40029;58.708;50.190;2024-03-23T11:47:08;17.75;;;8.95;;
54121;SDS011;40029;58.708;50.190;2024-03-23T11:49:41;8.48;;;4.57;;
54121;SDS011;40029;58.708;50.190;2024-03-23T11:52:12;14.00;;;5.93;;
54121;SDS011;40029;58.708;50.190;2024-03-23T11:54:43;12.15;;;5.28;;
54121;SDS011;40029;58.708;50.190;2024-03-23T11:57:14;10.77;;;5.43;;
54121;SDS011;40029;58.708;50.190;2024-03-23T11:59:45;6.18;;;3.40;;
54121;SDS011;40029;58.708;50.190;2024-03-23T12:02:17;12.35;;;6.00;;
54121;SDS011;40029;58.708;50.190;2024-03-23T12:04:49;9.90;;;4.82;;
54121;SDS011;40029;58.708;50.190;2024-03-23T12:07:20;12.90;;;5.28;;
54121;SDS011;40029;58.708;50.190;2024-03-23T12:10:05;16.55;;;5.78;;
54121;SDS011;40029;58.708;50.190;2024-03-23T12:13:01;10.05;;;4.40;;
54121;SDS011;40029;58.708;50.190;2024-03-23T12:15:32;5.93;;;3.25;;
54121;SDS011;40029;58.708;50.190;2024-03-23T12:18:08;11.90;;;4.40;;
54121;SDS011;40029;58.708;50.190;2024-03-23T12:20:40;17.67;;;6.57;;
54121;SDS011;40029;58.708;50.190;2024-03-23T12:23:12;13.73;;;5.07;;
54121;SDS011;40029;58.708;50.190;2024-03-23T12:25:48;19.55;;;6.43;;
54121;SDS011;40029;58.708;50.190;2024-03-23T12:28:38;15.48;;;5.18;;
54121;SDS011;40029;58.708;50.190;2024-03-23T12:31:10;16.27;;;5.57;;
54121;SDS011;40029;58.708;50.190;2024-03-23T12:33:41;11.13;;;4.55;;
54121;SDS011;40029;58.708;50.190;2024-03-23T12:36:13;10.13;;;4.63;;
54121;SDS011;40029;58.708;50.190;2024-03-23T12:38:44;11.52;;;4.55;;
54121;SDS011;40029;58.708;50.190;2024-03-23T12:41:15;9.35;;;4.10;;
54121;SDS011;40029;58.708;50.190;2024-03-23T12:43:46;8.50;;;3.40;;
54121;SDS011;40029;58.708;50.190;2024-03-23T12:46:17;7.72;;;3.17;;
54121;SDS011;40029;58.708;50.190;2024-03-23T12:48:48;8.63;;;3.53;;
54121;SDS011;40029;58.708;50.190;2024-03-23T12:51:19;5.68;;;2.97;;
54121;SDS011;40029;58.708;50.190;2024-03-23T12:53:51;5.47;;;3.08;;
54121;SDS011;40029;58.708;50.190;2024-03-23T12:56:22;6.68;;;3.55;;
54121;SDS011;40029;58.708;50.190;2024-03-23T12:58:53;8.48;;;3.08;;
54121;SDS011;40029;58.708;50.190;2024-03-23T13:01:26;4.88;;;3.00;;
54121;SDS011;40029;58.708;50.190;2024-03-23T13:04:16;12.43;;;4.68;;
54121;SDS011;40029;58.708;50.190;2024-03-23T13:06:47;8.43;;;4.10;;
54121;SDS011;40029;58.708;50.190;2024-03-23T13:09:18;12.45;;;3.78;;
54121;SDS011;40029;58.708;50.190;2024-03-23T13:11:49;7.85;;;3.75;;
54121;SDS011;40029;58.708;50.190;2024-03-23T13:14:20;6.00;;;3.25;;
54121;SDS011;40029;58.708;50.190;2024-03-23T13:16:53;8.52;;;4.68;;
54121;SDS011;40029;58.708;50.190;2024-03-23T13:19:24;12.02;;;4.05;;
54121;SDS011;40029;58.708;50.190;2024-03-23T13:22:01;5.85;;;3.38;;
54121;SDS011;40029;58.708;50.190;2024-03-23T13:24:32;7.45;;;3.45;;
54121;SDS011;40029;58.708;50.190;2024-03-23T13:27:04;9.52;;;4.03;;
54121;SDS011;40029;58.708;50.190;2024-03-23T13:29:39;7.55;;;3.80;;
54121;SDS011;40029;58.708;50.190;2024-03-23T13:32:10;10.07;;;4.35;;
54121;SDS011;40029;58.708;50.190;2024-03-23T13:35:00;6.50;;;3.20;;
54121;SDS011;40029;58.708;50.190;2024-03-23T13:37:31;9.10;;;4.20;;
54121;SDS011;40029;58.708;50.190;2024-03-23T13:40:02;8.90;;;3.90;;
54121;SDS011;40029;58.708;50.190;2024-03-23T13:42:34;12.02;;;4.32;;
54121;SDS011;40029;58.708;50.190;2024-03-23T13:45:05;6.50;;;3.90;;
54121;SDS011;40029;58.708;50.190;2024-03-23T13:47:36;10.10;;;4.47;;
54121;SDS011;40029;58.708;50.190;2024-03-23T13:50:27;9.18;;;4.70;;
54121;SDS011;40029;58.708;50.190;2024-03-23T13:53:16;8.10;;;4.70;;
54121;SDS011;40029;58.708;50.190;2024-03-23T13:55:47;8.85;;;5.03;;
54121;SDS011;40029;58.708;50.190;2024-03-23T13:58:37;12.82;;;5.47;;
54121;SDS011;40029;58.708;50.190;2024-03-23T14:01:10;14.82;;;5.25;;
54121;SDS011;40029;58.708;50.190;2024-03-23T14:03:42;10.60;;;4.65;;
54121;SDS011;40029;58.708;50.190;2024-03-23T14:06:13;10.40;;;5.45;;
54121;SDS011;40029;58.708;50.190;2024-03-23T14:08:45;18.70;;;5.90;;
54121;SDS011;40029;58.708;50.190;2024-03-23T14:11:35;9.73;;;5.28;;
54121;SDS011;40029;58.708;50.190;2024-03-23T14:14:07;9.65;;;4.22;;
54121;SDS011;40029;58.708;50.190;2024-03-23T14:16:39;10.90;;;4.45;;
54121;SDS011;40029;58.708;50.190;2024-03-23T14:19:10;11.10;;;4.82;;
54121;SDS011;40029;58.708;50.190;2024-03-23T14:21:41;10.55;;;5.00;;
54121;SDS011;40029;58.708;50.190;2024-03-23T14:24:12;13.88;;;5.78;;
54121;SDS011;40029;58.708;50.190;2024-03-23T14:26:43;8.25;;;5.20;;
54121;SDS011;40029;58.708;50.190;2024-03-23T14:29:14;10.48;;;5.53;;
54121;SDS011;40029;58.708;50.190;2024-03-23T14:31:46;11.25;;;5.20;;
54121;SDS011;40029;58.708;50.190;2024-03-23T14:34:17;12.80;;;6.15;;
54121;SDS011;40029;58.708;50.190;2024-03-23T14:36:48;13.77;;;5.57;;
54121;SDS011;40029;58.708;50.190;2024-03-23T14:39:23;10.57;;;5.32;;
54121;SDS011;40029;58.708;50.190;2024-03-23T14:44:27;11.80;;;5.40;;
54121;SDS011;40029;58.708;50.190;2024-03-23T14:46:59;11.55;;;5.10;;
54121;SDS011;40029;58.708;50.190;2024-03-23T14:49:30;10.43;;;5.55;;
54121;SDS011;40029;58.708;50.190;2024-03-23T14:52:02;12.05;;;5.72;;
54121;SDS011;40029;58.708;50.190;2024-03-23T14:54:34;10.20;;;5.07;;
54121;SDS011;40029;58.708;50.190;2024-03-23T14:57:05;11.77;;;6.10;;
54121;SDS011;40029;58.708;50.190;2024-03-23T14:59:39;14.00;;;5.70;;
54121;SDS011;40029;58.708;50.190;2024-03-23T15:02:13;14.05;;;5.22;;
54121;SDS011;40029;58.708;50.190;2024-03-23T15:04:45;9.52;;;4.47;;
54121;SDS011;40029;58.708;50.190;2024-03-23T15:07:16;14.32;;;5.80;;
54121;SDS011;40029;58.708;50.190;2024-03-23T15:09:47;14.25;;;5.78;;
54121;SDS011;40029;58.708;50.190;2024-03-23T15:12:37;9.93;;;4.93;;
54121;SDS011;40029;58.708;50.190;2024-03-23T15:15:08;19.52;;;5.40;;
54121;SDS011;40029;58.708;50.190;2024-03-23T15:17:40;10.52;;;5.20;;
54121;SDS011;40029;58.708;50.190;2024-03-23T15:20:33;13.02;;;6.40;;
54121;SDS011;40029;58.708;50.190;2024-03-23T15:23:06;12.93;;;6.65;;
54121;SDS011;40029;58.708;50.190;2024-03-23T15:25:38;10.52;;;4.60;;
54121;SDS011;40029;58.708;50.190;2024-03-23T15:28:09;10.55;;;6.05;;
54121;SDS011;40029;58.708;50.190;2024-03-23T15:30:40;17.02;;;6.13;;
54121;SDS011;40029;58.708;50.190;2024-03-23T15:33:30;16.65;;;6.65;;
54121;SDS011;40029;58.708;50.190;2024-03-23T15:36:03;12.27;;;6.78;;
54121;SDS011;40029;58.708;50.190;2024-03-23T15:38:34;13.43;;;6.03;;
54121;SDS011;40029;58.708;50.190;2024-03-23T15:41:06;13.90;;;6.60;;
54121;SDS011;40029;58.708;50.190;2024-03-23T15:43:37;16.00;;;5.90;;
54121;SDS011;40029;58.708;50.190;2024-03-23T15:46:09;11.02;;;5.43;;
54121;SDS011;40029;58.708;50.190;2024-03-23T15:48:42;13.18;;;5.93;;
54121;SDS011;40029;58.708;50.190;2024-03-23T15:51:17;11.90;;;5.88;;
54121;SDS011;40029;58.708;50.190;2024-03-23T15:53:51;16.17;;;6.78;;
54121;SDS011;40029;58.708;50.190;2024-03-23T15:56:31;15.48;;;6.50;;
54121;SDS011;40029;58.708;50.190;2024-03-23T15:59:02;13.77;;;6.25;;
54121;SDS011;40029;58.708;50.190;2024-03-23T16:01:36;16.38;;;6.15;;
54121;SDS011;40029;58.708;50.190;2024-03-23T16:04:09;18.05;;;7.00;;
54121;SDS011;40029;58.708;50.190;2024-03-23T16:06:40;20.20;;;7.00;;
54121;SDS011;40029;58.708;50.190;2024-03-23T16:09:12;17.08;;;6.78;;
54121;SDS011;40029;58.708;50.190;2024-03-23T16:12:03;10.63;;;6.25;;
54121;SDS011;40029;58.708;50.190;2024-03-23T16:14:35;15.73;;;6.72;;